South Waterford, Maine
Current Conditions -  °F | °C
As of 3:15 PM on Friday 28 Nov 2014 (Local Time) from KLEW Reporting Station
Broken Clouds Broken Clouds  
Wind Chill: -7°   Ceiling: 5000
Heat Index: -2°   Visibility: 10mi
Dew Point: -9°   Wind: 9mph
Humidity: 59%   Direction: 330°NNW
Pressure: 30.03"   Gusts: 16mph
Location:  44.17°N, 70.72°W
Report Text: KLEW 282015Z AUTO 33008G14KT 10SM BKN050 M02/M09 A3003 RMK AO1
Loading
Personal Weather Stations






























Interactive Weather Map New forecast layout! Learn more

10-Day Weather Forecast

Advertisements
Track Severe Weather on mobile